Time;durP1;ratioP1;P1;durP2;ratioP2;P2;SDS_P1;SDS_P2;PMS_P1;PMS_P2;Temp;Humidity;BMP_temperature;BMP_pressure;BME280_temperature;BME280_humidity;BME280_pressure;Samples;Min_cycle;Max_cycle;Signal;HPM_P1;HPM_P2
2024/03/08 00:00:20;;;;;;;14.20;12.70;;;7.40;37.70;;;;;;10355764;28;20230;-71
2024/03/08 00:05:25;;;;;;;13.07;11.77;;;7.40;37.70;;;;;;10347123;28;20645;-71
2024/03/08 00:10:29;;;;;;;13.30;11.87;;;7.30;37.80;;;;;;10355545;28;20226;-71
2024/03/08 00:15:33;;;;;;;13.43;11.70;;;7.20;37.90;;;;;;10383137;28;20226;-71
2024/03/08 00:20:38;;;;;;;15.40;12.47;;;7.20;38.10;;;;;;10389989;28;20233;-71
2024/03/08 00:25:41;;;;;;;14.13;12.63;;;7.10;38.30;;;;;;10383622;28;20237;-72
2024/03/08 00:30:45;;;;;;;13.13;11.50;;;7.10;38.30;;;;;;10386588;28;20218;-71
2024/03/08 00:35:49;;;;;;;13.30;11.90;;;7.10;38.50;;;;;;10384469;28;20226;-71
2024/03/08 00:40:54;;;;;;;14.07;12.67;;;7.00;38.40;;;;;;10383936;28;20718;-71
2024/03/08 00:45:57;;;;;;;14.17;12.67;;;7.00;38.40;;;;;;10383380;28;20228;-71
2024/03/08 00:51:02;;;;;;;14.90;13.33;;;6.90;38.30;;;;;;10384145;28;20333;-71
2024/03/08 00:56:06;;;;;;;13.63;12.23;;;6.80;38.30;;;;;;10389309;28;20232;-71
2024/03/08 01:01:09;;;;;;;14.17;12.73;;;6.70;38.20;;;;;;10382869;28;20311;-71
2024/03/08 01:06:14;;;;;;;14.27;12.87;;;6.70;38.20;;;;;;10380461;28;20222;-71
2024/03/08 01:11:17;;;;;;;14.67;12.97;;;6.70;38.20;;;;;;10384463;28;20275;-71
2024/03/08 01:16:21;;;;;;;15.47;13.43;;;6.70;38.20;;;;;;10386108;28;20590;-71
2024/03/08 01:21:26;;;;;;;14.10;12.43;;;6.60;38.10;;;;;;10385998;28;20323;-71
2024/03/08 01:26:29;;;;;;;14.23;12.83;;;6.60;38.50;;;;;;10388666;28;20830;-71
2024/03/08 01:31:32;;;;;;;14.73;12.87;;;6.60;38.30;;;;;;10383068;28;20226;-72
2024/03/08 01:36:37;;;;;;;14.20;12.77;;;6.60;38.50;;;;;;10389101;28;20240;-71
2024/03/08 01:41:41;;;;;;;14.13;12.63;;;6.60;38.60;;;;;;10383728;28;20532;-71
2024/03/08 01:46:45;;;;;;;14.27;12.77;;;6.50;39.20;;;;;;10379722;28;20223;-71
2024/03/08 01:51:50;;;;;;;15.33;13.73;;;6.50;38.60;;;;;;10387163;28;20305;-71
2024/03/08 01:56:54;;;;;;;14.40;12.90;;;6.50;39.00;;;;;;10378029;28;20310;-71
2024/03/08 02:02:02;;;;;;;15.60;13.87;;;6.40;39.00;;;;;;10382381;28;20226;-71
2024/03/08 02:07:07;;;;;;;14.43;12.90;;;6.40;39.10;;;;;;10383217;28;20299;-71
2024/03/08 02:12:13;;;;;;;14.70;13.20;;;6.30;39.10;;;;;;10380340;28;20226;-71
2024/03/08 02:17:16;;;;;;;16.10;13.07;;;6.40;39.20;;;;;;10385757;28;20242;-71
2024/03/08 02:22:21;;;;;;;13.73;12.33;;;6.30;39.00;;;;;;10378951;28;20230;-71
2024/03/08 02:27:25;;;;;;;13.53;12.10;;;6.30;39.10;;;;;;10380286;28;20253;-71
2024/03/08 02:32:28;;;;;;;14.53;12.97;;;6.30;39.10;;;;;;10380843;28;20301;-72
2024/03/08 02:37:33;;;;;;;13.07;11.80;;;6.30;39.00;;;;;;10382119;28;20300;-71
2024/03/08 02:42:36;;;;;;;14.37;12.90;;;6.30;39.10;;;;;;10382816;28;20329;-71
2024/03/08 02:47:39;;;;;;;13.13;11.77;;;6.30;39.00;;;;;;10380510;28;20249;-71
2024/03/08 02:52:46;;;;;;;14.77;13.23;;;6.30;39.10;;;;;;10379449;28;20305;-71
2024/03/08 02:57:49;;;;;;;15.43;13.77;;;6.30;39.20;;;;;;10381269;28;20306;-71
2024/03/08 03:02:53;;;;;;;16.27;13.87;;;6.20;39.10;;;;;;10379984;28;20612;-71
2024/03/08 03:07:59;;;;;;;14.97;13.37;;;6.20;39.20;;;;;;10379837;28;20225;-71
2024/03/08 03:13:04;;;;;;;16.77;15.07;;;6.20;39.30;;;;;;10379168;28;20232;-71
2024/03/08 03:18:07;;;;;;;14.97;13.43;;;6.20;39.40;;;;;;10379335;28;20233;-71
2024/03/08 03:23:14;;;;;;;15.70;14.00;;;6.20;39.30;;;;;;10375197;28;20233;-71
2024/03/08 03:28:21;;;;;;;14.97;13.37;;;6.20;39.40;;;;;;10379676;28;20230;-71
2024/03/08 03:33:25;;;;;;;16.47;14.67;;;6.10;39.30;;;;;;10379485;28;20332;-71
2024/03/08 03:38:30;;;;;;;17.20;15.17;;;6.10;39.30;;;;;;10377835;28;20234;-72
2024/03/08 03:43:33;;;;;;;19.30;15.33;;;6.10;39.50;;;;;;10377039;28;20276;-71
2024/03/08 03:48:36;;;;;;;16.70;14.97;;;6.10;39.40;;;;;;10380230;28;20230;-71
2024/03/08 03:53:45;;;;;;;18.27;16.07;;;6.10;39.30;;;;;;10380865;28;20218;-71
2024/03/08 03:58:50;;;;;;;17.07;15.27;;;6.00;39.50;;;;;;10384082;28;20344;-71
2024/03/08 04:03:53;;;;;;;18.03;16.03;;;5.90;39.50;;;;;;10380064;28;20241;-71
2024/03/08 04:08:57;;;;;;;19.13;16.63;;;5.80;39.80;;;;;;10375920;28;20603;-71
2024/03/08 04:14:01;;;;;;;18.97;16.90;;;5.80;40.30;;;;;;10376186;28;20240;-71
2024/03/08 04:19:04;;;;;;;19.47;16.80;;;5.70;40.30;;;;;;10372463;28;20469;-71
2024/03/08 04:24:09;;;;;;;20.53;17.87;;;5.70;40.20;;;;;;10375778;28;20231;-71
2024/03/08 04:29:14;;;;;;;21.20;17.50;;;5.70;40.50;;;;;;10377694;28;20234;-71
2024/03/08 04:34:17;;;;;;;19.73;16.90;;;5.70;40.50;;;;;;10375278;28;20218;-71
2024/03/08 04:39:22;;;;;;;18.67;16.57;;;5.70;40.30;;;;;;10380285;28;20236;-71
2024/03/08 04:44:25;;;;;;;20.03;17.00;;;5.70;41.20;;;;;;10384696;28;20843;-71
2024/03/08 04:49:28;;;;;;;20.53;17.33;;;5.80;40.30;;;;;;10384379;28;20230;-71
2024/03/08 04:54:34;;;;;;;21.17;18.03;;;5.90;40.30;;;;;;10387485;28;20236;-71
2024/03/08 04:59:37;;;;;;;24.13;19.57;;;5.90;40.30;;;;;;10382850;28;20711;-71
2024/03/08 05:04:42;;;;;;;21.23;18.33;;;5.90;40.30;;;;;;10387219;28;20630;-71
2024/03/08 05:09:51;;;;;;;22.10;17.83;;;5.90;40.30;;;;;;10385447;28;20287;-71
2024/03/08 05:14:55;;;;;;;24.90;20.83;;;5.80;40.30;;;;;;10380526;28;20226;-71
2024/03/08 05:19:58;;;;;;;25.10;19.77;;;5.80;40.30;;;;;;10384332;28;20809;-71
2024/03/08 05:25:03;;;;;;;24.60;19.63;;;5.80;40.30;;;;;;10378666;28;20852;-71
2024/03/08 05:30:07;;;;;;;23.77;18.97;;;5.80;40.30;;;;;;10381945;28;20719;-71
2024/03/08 05:35:12;;;;;;;27.67;21.03;;;5.80;40.20;;;;;;10379069;28;20254;-71
2024/03/08 05:40:17;;;;;;;23.13;19.83;;;5.90;40.10;;;;;;10375783;28;20730;-71
2024/03/08 05:45:25;;;;;;;25.67;21.37;;;5.90;40.10;;;;;;10373791;28;20318;-71
2024/03/08 05:50:28;;;;;;;25.70;21.03;;;5.80;39.90;;;;;;10376616;28;20222;-71
2024/03/08 05:55:34;;;;;;;24.83;21.27;;;5.80;39.90;;;;;;10371026;28;20691;-72
2024/03/08 06:00:38;;;;;;;23.77;19.80;;;5.80;40.00;;;;;;10369505;28;20234;-71
2024/03/08 06:05:41;;;;;;;24.90;20.37;;;5.80;39.80;;;;;;10369855;28;20237;-71
2024/03/08 06:10:49;;;;;;;25.53;21.60;;;5.90;39.90;;;;;;10372121;28;20647;-72
2024/03/08 06:15:52;;;;;;;25.70;21.13;;;5.90;40.00;;;;;;10379048;28;20296;-72
2024/03/08 06:20:56;;;;;;;26.83;21.90;;;5.90;39.80;;;;;;10379106;28;20234;-71
2024/03/08 06:26:02;;;;;;;25.00;20.60;;;6.00;39.80;;;;;;10380759;28;20267;-72
2024/03/08 06:31:05;;;;;;;24.33;21.00;;;6.00;39.90;;;;;;10381561;28;20412;-72
2024/03/08 06:36:09;;;;;;;25.20;20.23;;;6.00;39.90;;;;;;10382800;28;20731;-72
2024/03/08 06:41:15;;;;;;;26.13;21.57;;;6.10;39.90;;;;;;10382148;28;20233;-72
2024/03/08 06:46:20;;;;;;;27.67;22.67;;;6.10;39.90;;;;;;10382032;28;20699;-72
2024/03/08 06:51:24;;;;;;;28.53;22.53;;;6.10;39.80;;;;;;10382718;28;20562;-72
2024/03/08 06:56:29;;;;;;;27.90;22.93;;;6.10;39.80;;;;;;10385096;28;20731;-72
2024/03/08 07:01:34;;;;;;;27.37;23.27;;;6.10;40.00;;;;;;10385940;28;20236;-72
2024/03/08 07:06:37;;;;;;;29.73;24.13;;;6.10;39.90;;;;;;10337991;28;20735;-72
2024/03/08 07:11:42;;;;;;;29.40;23.70;;;6.10;40.00;;;;;;10339897;28;20229;-72
2024/03/08 07:16:47;;;;;;;29.73;23.27;;;6.20;40.30;;;;;;10340088;28;20233;-72
2024/03/08 07:21:50;;;;;;;29.27;23.67;;;6.20;40.30;;;;;;10339058;28;20234;-71
2024/03/08 07:26:55;;;;;;;28.90;23.87;;;6.30;40.20;;;;;;10355730;28;20329;-72
2024/03/08 07:32:11;;;;;;;28.07;22.67;;;6.40;40.30;;;;;;10377107;28;20342;-72
2024/03/08 07:37:14;;;;;;;29.03;23.37;;;6.40;40.30;;;;;;10375862;28;20776;-71
2024/03/08 07:42:19;;;;;;;30.10;24.47;;;6.50;40.30;;;;;;10377396;28;20237;-71
2024/03/08 07:47:22;;;;;;;31.93;24.37;;;6.50;40.40;;;;;;10378321;28;20244;-72
2024/03/08 07:52:27;;;;;;;30.53;24.60;;;6.60;40.40;;;;;;10345239;28;20662;-72
2024/03/08 07:57:33;;;;;;;31.03;23.30;;;6.70;40.40;;;;;;10345326;28;20237;-72
2024/03/08 08:02:36;;;;;;;27.50;22.73;;;6.70;40.10;;;;;;10338363;28;20257;-72
2024/03/08 08:07:45;;;;;;;28.20;23.30;;;6.80;40.40;;;;;;10340751;28;20239;-72
2024/03/08 08:12:53;;;;;;;28.80;23.33;;;6.90;40.00;;;;;;10338239;28;20253;-72
2024/03/08 08:17:56;;;;;;;27.33;23.13;;;7.10;40.20;;;;;;10347273;28;20787;-72
2024/03/08 08:22:59;;;;;;;27.27;23.00;;;7.20;40.20;;;;;;10353785;28;20242;-72
2024/03/08 08:28:04;;;;;;;27.17;22.87;;;7.30;40.20;;;;;;10356819;28;20234;-71
2024/03/08 08:33:08;;;;;;;27.97;22.80;;;7.40;40.00;;;;;;10357683;28;20222;-70
2024/03/08 08:38:12;;;;;;;27.90;23.20;;;7.50;39.70;;;;;;10373956;28;20226;-72
2024/03/08 08:43:17;;;;;;;25.93;22.93;;;7.60;39.30;;;;;;10385907;28;20718;-72
2024/03/08 08:48:21;;;;;;;25.10;22.13;;;7.60;38.90;;;;;;10384877;28;20328;-72
2024/03/08 08:53:24;;;;;;;26.87;21.63;;;7.70;39.20;;;;;;10386382;28;20288;-72
2024/03/08 08:58:28;;;;;;;26.13;21.43;;;7.80;39.50;;;;;;10387179;28;20225;-72
2024/03/08 09:03:33;;;;;;;24.37;20.77;;;8.00;39.30;;;;;;10385651;28;20229;-72
2024/03/08 09:08:38;;;;;;;23.90;21.30;;;8.10;39.30;;;;;;10377875;28;20235;-72
2024/03/08 09:13:45;;;;;;;23.67;21.00;;;8.20;38.60;;;;;;10354392;28;20285;-72
2024/03/08 09:18:49;;;;;;;24.07;20.43;;;8.30;38.10;;;;;;10346751;28;20233;-72
2024/03/08 09:23:52;;;;;;;23.70;19.67;;;8.40;38.90;;;;;;10347180;28;20716;-72
2024/03/08 09:28:56;;;;;;;23.07;19.77;;;8.40;38.30;;;;;;10345794;28;20997;-72
2024/03/08 09:34:00;;;;;;;21.60;18.50;;;8.50;37.70;;;;;;10345102;28;21092;-72
2024/03/08 09:39:03;;;;;;;21.67;18.63;;;8.60;38.20;;;;;;10384410;28;20230;-72
2024/03/08 09:44:08;;;;;;;22.87;19.97;;;8.70;38.30;;;;;;10374532;28;20230;-72
2024/03/08 09:49:12;;;;;;;20.73;17.50;;;8.80;37.40;;;;;;10342847;28;20246;-72
2024/03/08 09:54:16;;;;;;;21.53;19.03;;;9.00;38.50;;;;;;10340202;28;20293;-72
2024/03/08 09:59:46;;;;;;;20.10;17.67;;;9.20;38.20;;;;;;10346621;28;20350;-72
2024/03/08 10:04:50;;;;;;;20.37;18.17;;;9.40;38.40;;;;;;10346351;28;20644;-72
2024/03/08 10:09:53;;;;;;;22.73;18.50;;;9.70;38.70;;;;;;10341235;28;20237;-72
2024/03/08 10:14:59;;;;;;;21.27;18.10;;;10.00;37.00;;;;;;10344137;28;20223;-72
2024/03/08 10:20:14;;;;;;;19.47;17.37;;;10.20;36.00;;;;;;10344294;28;20223;-72
2024/03/08 10:25:18;;;;;;;20.40;17.77;;;10.40;36.80;;;;;;10340271;28;20227;-72
2024/03/08 10:30:23;;;;;;;18.47;16.47;;;10.60;36.60;;;;;;10344922;28;20237;-72
2024/03/08 10:35:27;;;;;;;18.70;15.80;;;10.80;35.80;;;;;;10339121;28;20226;-72
2024/03/08 10:40:31;;;;;;;17.37;15.57;;;10.90;36.40;;;;;;10345663;28;20234;-72
2024/03/08 10:45:41;;;;;;;17.90;15.47;;;11.10;36.10;;;;;;10343432;28;20240;-73
2024/03/08 10:50:46;;;;;;;16.47;14.87;;;11.30;34.90;;;;;;10339003;28;20786;-73
2024/03/08 10:55:53;;;;;;;17.50;15.37;;;11.50;35.30;;;;;;10339794;28;20234;-73
2024/03/08 11:00:58;;;;;;;17.63;15.80;;;11.60;35.00;;;;;;10339701;28;20226;-72
2024/03/08 11:06:02;;;;;;;18.53;16.63;;;11.70;34.50;;;;;;10341800;28;20233;-72
2024/03/08 11:11:05;;;;;;;17.77;15.87;;;11.70;34.30;;;;;;10335306;28;20235;-72
2024/03/08 11:16:11;;;;;;;16.73;15.03;;;11.90;34.50;;;;;;10333094;28;20341;-73
2024/03/08 11:21:15;;;;;;;16.13;14.43;;;12.00;33.90;;;;;;10336452;28;20222;-72
2024/03/08 11:26:20;;;;;;;15.80;14.27;;;12.10;34.00;;;;;;10336416;28;20322;-73
2024/03/08 11:31:26;;;;;;;16.90;15.13;;;12.20;33.70;;;;;;10337100;28;20233;-72
2024/03/08 11:36:35;;;;;;;15.83;14.13;;;12.30;32.50;;;;;;10337818;28;20250;-73
2024/03/08 11:41:38;;;;;;;15.37;13.77;;;12.30;32.40;;;;;;10334257;28;20889;-73
2024/03/08 11:46:46;;;;;;;15.67;14.17;;;12.40;33.40;;;;;;10337994;28;20309;-72
2024/03/08 11:51:53;;;;;;;13.57;11.80;;;12.50;32.90;;;;;;10338405;28;20218;-72
2024/03/08 11:57:00;;;;;;;13.73;12.33;;;12.60;31.30;;;;;;10336614;28;20305;-73
2024/03/08 12:02:06;;;;;;;13.53;12.13;;;12.60;32.40;;;;;;10336251;28;20721;-72
2024/03/08 12:07:11;;;;;;;13.77;12.20;;;12.60;31.10;;;;;;10333499;28;20243;-72
2024/03/08 12:12:15;;;;;;;14.37;12.90;;;12.60;30.60;;;;;;10339099;28;20229;-72
2024/03/08 12:17:20;;;;;;;13.57;12.27;;;12.60;31.70;;;;;;10338015;28;20318;-72
2024/03/08 12:22:26;;;;;;;13.50;12.20;;;12.60;31.40;;;;;;10335872;28;20229;-72
2024/03/08 12:27:29;;;;;;;12.80;11.40;;;12.70;31.30;;;;;;10337766;28;20233;-73
2024/03/08 12:32:35;;;;;;;13.00;11.77;;;12.80;31.00;;;;;;10336445;28;20274;-73
2024/03/08 12:37:38;;;;;;;13.23;11.77;;;12.90;30.30;;;;;;10335382;28;20284;-73
2024/03/08 12:42:41;;;;;;;13.00;11.70;;;12.90;30.00;;;;;;10335103;28;20237;-73
2024/03/08 12:47:46;;;;;;;12.10;10.90;;;12.90;30.30;;;;;;10335693;28;20230;-72
2024/03/08 12:52:49;;;;;;;12.83;11.53;;;12.80;30.20;;;;;;10336083;28;20269;-72
2024/03/08 12:57:56;;;;;;;14.70;13.20;;;12.90;30.30;;;;;;10338543;28;21088;-73
2024/03/08 13:03:00;;;;;;;12.80;11.60;;;12.90;30.30;;;;;;10342696;28;20254;-72
2024/03/08 13:08:04;;;;;;;12.53;11.33;;;13.00;30.40;;;;;;10343300;28;20771;-73
2024/03/08 13:13:09;;;;;;;12.83;11.47;;;13.00;30.40;;;;;;10340923;28;20226;-72
2024/03/08 13:18:15;;;;;;;12.67;11.37;;;13.10;30.40;;;;;;10342850;28;20285;-72
2024/03/08 13:23:21;;;;;;;12.47;11.27;;;13.00;29.40;;;;;;10337736;28;20259;-72
2024/03/08 13:28:29;;;;;;;11.50;10.43;;;13.00;30.40;;;;;;10339474;28;20230;-73
2024/03/08 13:33:36;;;;;;;10.60;9.53;;;13.00;30.40;;;;;;10341414;28;20979;-72
2024/03/08 13:38:42;;;;;;;11.13;10.10;;;13.10;30.10;;;;;;10346073;28;20722;-73
2024/03/08 13:43:49;;;;;;;12.07;10.87;;;13.20;30.50;;;;;;10341947;28;20304;-72
2024/03/08 13:48:55;;;;;;;10.70;9.70;;;13.20;29.40;;;;;;10348283;28;20285;-73
2024/03/08 13:54:00;;;;;;;10.57;9.57;;;13.30;28.80;;;;;;10381351;28;20352;-72
2024/03/08 13:59:03;;;;;;;10.00;9.00;;;13.20;29.00;;;;;;10385048;28;20299;-72
2024/03/08 14:04:08;;;;;;;10.80;9.20;;;13.20;29.60;;;;;;10384588;28;20757;-72
2024/03/08 14:09:16;;;;;;;10.67;9.57;;;13.20;28.70;;;;;;10377747;28;20232;-72
2024/03/08 14:14:20;;;;;;;10.77;9.70;;;13.20;28.60;;;;;;10378358;28;20240;-72
2024/03/08 14:19:25;;;;;;;10.10;9.10;;;13.20;28.50;;;;;;10384942;28;20238;-72
2024/03/08 14:24:29;;;;;;;10.63;9.03;;;13.20;29.00;;;;;;10375091;28;20230;-72
2024/03/08 14:29:32;;;;;;;9.20;8.30;;;13.20;29.20;;;;;;10342936;28;20308;-73
2024/03/08 14:34:37;;;;;;;8.50;7.53;;;13.30;29.50;;;;;;10339707;28;20328;-72
2024/03/08 14:39:40;;;;;;;7.70;7.00;;;13.40;28.50;;;;;;10341716;28;20230;-73
2024/03/08 14:44:48;;;;;;;8.23;7.43;;;13.50;29.00;;;;;;10339757;28;20314;-72
2024/03/08 14:49:52;;;;;;;9.33;7.43;;;13.50;29.10;;;;;;10340511;28;20235;-72
2024/03/08 14:54:56;;;;;;;7.33;6.63;;;13.50;28.90;;;;;;10339225;28;20254;-73
2024/03/08 15:00:02;;;;;;;8.13;7.40;;;13.60;29.50;;;;;;10337716;28;20258;-72
2024/03/08 15:05:11;;;;;;;7.93;7.17;;;13.60;28.90;;;;;;10337630;28;20230;-72
2024/03/08 15:10:16;;;;;;;8.57;7.67;;;13.70;28.40;;;;;;10340289;28;20668;-73
2024/03/08 15:15:20;;;;;;;7.93;6.90;;;13.70;28.60;;;;;;10334820;28;20227;-72
2024/03/08 15:20:27;;;;;;;8.73;7.93;;;13.70;28.70;;;;;;10349543;28;20231;-72
2024/03/08 15:25:34;;;;;;;8.40;7.60;;;13.60;27.30;;;;;;10341665;28;20768;-72
2024/03/08 15:30:39;;;;;;;8.20;7.50;;;13.50;28.10;;;;;;10339127;28;20869;-72
2024/03/08 15:35:50;;;;;;;7.67;6.97;;;13.40;28.00;;;;;;10337176;28;20709;-72
2024/03/08 15:40:54;;;;;;;7.17;6.47;;;13.40;27.40;;;;;;10340344;28;20281;-72
2024/03/08 15:45:58;;;;;;;7.03;6.43;;;13.40;28.30;;;;;;10341919;28;20233;-72
2024/03/08 15:51:05;;;;;;;6.97;6.37;;;13.40;27.90;;;;;;10339296;28;20317;-71
2024/03/08 15:56:09;;;;;;;7.40;6.70;;;13.40;27.80;;;;;;10335579;28;21132;-72
2024/03/08 16:01:15;;;;;;;8.10;7.10;;;13.30;27.90;;;;;;10337426;28;20240;-72
2024/03/08 16:06:22;;;;;;;7.27;6.57;;;13.20;28.10;;;;;;10332580;28;20709;-72
2024/03/08 16:11:25;;;;;;;7.73;6.93;;;13.20;27.50;;;;;;10338851;28;20264;-72
2024/03/08 16:16:30;;;;;;;8.63;7.77;;;13.20;28.10;;;;;;10350789;28;20309;-72
2024/03/08 16:21:36;;;;;;;8.20;7.40;;;13.20;28.00;;;;;;10376261;28;20671;-72
2024/03/08 16:26:39;;;;;;;8.27;7.40;;;13.20;27.90;;;;;;10373957;28;20225;-72
2024/03/08 16:31:44;;;;;;;8.53;7.73;;;13.10;28.20;;;;;;10367363;28;20219;-72
2024/03/08 16:36:49;;;;;;;8.73;7.83;;;13.10;28.00;;;;;;10364515;28;20232;-72
2024/03/08 16:41:52;;;;;;;8.00;7.20;;;13.00;28.10;;;;;;10350476;28;20218;-72
2024/03/08 16:47:00;;;;;;;15.40;12.93;;;12.90;28.40;;;;;;10345475;28;20230;-72
2024/03/08 16:52:05;;;;;;;13.23;11.90;;;12.90;27.80;;;;;;10350820;28;20944;-71
2024/03/08 16:57:13;;;;;;;12.20;10.93;;;12.90;28.20;;;;;;10349733;28;20226;-72
2024/03/08 17:02:17;;;;;;;8.93;8.07;;;12.90;28.60;;;;;;10349616;28;20274;-72
2024/03/08 17:07:22;;;;;;;9.60;7.13;;;12.80;28.30;;;;;;10346559;28;20744;-72
2024/03/08 17:12:26;;;;;;;7.97;7.17;;;12.80;28.70;;;;;;10349432;28;20236;-72
2024/03/08 17:17:30;;;;;;;8.13;7.37;;;12.70;28.50;;;;;;10386478;28;20660;-72
2024/03/08 17:22:35;;;;;;;8.33;6.60;;;12.60;28.50;;;;;;10385097;28;20232;-72
2024/03/08 17:27:38;;;;;;;7.83;6.33;;;12.50;28.40;;;;;;10349008;28;20226;-72
2024/03/08 17:32:41;;;;;;;6.90;6.30;;;12.50;28.60;;;;;;10348497;28;20225;-72
2024/03/08 17:37:47;;;;;;;7.90;7.10;;;12.50;28.90;;;;;;10348496;28;20226;-72
2024/03/08 17:42:51;;;;;;;6.93;6.33;;;12.40;28.30;;;;;;10351120;28;20223;-72
2024/03/08 17:47:55;;;;;;;7.63;6.93;;;12.40;28.60;;;;;;10346003;28;20226;-72
2024/03/08 17:53:03;;;;;;;8.23;7.50;;;12.30;28.40;;;;;;10348701;28;20226;-73
2024/03/08 17:58:06;;;;;;;8.30;7.50;;;12.20;28.40;;;;;;10388491;28;20237;-72
2024/03/08 18:03:11;;;;;;;7.53;6.83;;;12.10;28.60;;;;;;10385596;28;20252;-72
2024/03/08 18:08:18;;;;;;;7.23;6.47;;;12.10;28.70;;;;;;10384615;28;20236;-72
2024/03/08 18:13:21;;;;;;;7.87;7.07;;;12.00;28.50;;;;;;10383662;28;21004;-72
2024/03/08 18:18:27;;;;;;;7.60;6.90;;;12.00;28.80;;;;;;10380405;28;20234;-72
2024/03/08 18:23:32;;;;;;;7.73;6.50;;;11.90;28.70;;;;;;10381087;28;20654;-72
2024/03/08 18:28:36;;;;;;;7.60;6.90;;;11.90;28.80;;;;;;10385616;28;20746;-70
2024/03/08 18:33:44;;;;;;;7.33;6.63;;;11.80;29.00;;;;;;10387990;28;20818;-72
2024/03/08 18:38:49;;;;;;;7.07;6.37;;;11.80;29.20;;;;;;10385828;28;20226;-72
2024/03/08 18:43:53;;;;;;;6.53;5.90;;;11.70;29.00;;;;;;10384220;28;20603;-72
2024/03/08 18:48:56;;;;;;;6.53;5.93;;;11.70;29.00;;;;;;10389910;28;20229;-72
2024/03/08 18:54:03;;;;;;;6.43;5.83;;;11.60;28.80;;;;;;10386008;28;20325;-72
2024/03/08 18:59:09;;;;;;;7.67;6.90;;;11.60;28.90;;;;;;10382204;28;20317;-72
2024/03/08 19:04:13;;;;;;;7.33;6.63;;;11.50;29.00;;;;;;10386327;28;20997;-72
2024/03/08 19:09:17;;;;;;;8.67;7.43;;;11.40;28.90;;;;;;10381905;28;20225;-72
2024/03/08 19:14:20;;;;;;;9.23;8.17;;;11.30;28.90;;;;;;10379602;28;20317;-72
2024/03/08 19:19:24;;;;;;;10.10;9.00;;;11.20;29.10;;;;;;10381403;28;20234;-72
2024/03/08 19:24:29;;;;;;;8.70;7.83;;;11.00;29.00;;;;;;10386304;28;20242;-72
2024/03/08 19:29:32;;;;;;;8.20;7.43;;;10.80;28.90;;;;;;10381514;28;20229;-72
2024/03/08 19:34:35;;;;;;;8.80;7.70;;;10.80;29.10;;;;;;10381302;28;20312;-72
2024/03/08 19:39:40;;;;;;;8.17;7.37;;;10.70;29.70;;;;;;10379847;28;20241;-72
2024/03/08 19:44:47;;;;;;;8.10;7.40;;;10.70;29.40;;;;;;10382533;28;20301;-72
2024/03/08 19:49:50;;;;;;;8.23;7.43;;;10.70;29.30;;;;;;10380507;28;20335;-72
2024/03/08 19:54:56;;;;;;;8.30;7.50;;;10.70;29.30;;;;;;10383850;28;20222;-72
2024/03/08 19:59:59;;;;;;;8.17;7.37;;;10.70;29.10;;;;;;10379831;28;20241;-72
2024/03/08 20:05:04;;;;;;;8.93;8.03;;;10.60;29.30;;;;;;10377434;28;20237;-72
2024/03/08 20:10:11;;;;;;;8.03;7.23;;;10.60;29.20;;;;;;10377486;28;20233;-72
2024/03/08 20:15:17;;;;;;;8.90;7.87;;;10.50;29.20;;;;;;10387094;28;20241;-72
2024/03/08 20:20:21;;;;;;;10.03;9.03;;;10.50;29.20;;;;;;10389438;28;20225;-72
2024/03/08 20:25:26;;;;;;;18.17;16.40;;;10.50;29.40;;;;;;10383379;28;20237;-72
2024/03/08 20:30:30;;;;;;;9.97;8.70;;;10.40;29.30;;;;;;10381246;28;20230;-72
2024/03/08 20:35:34;;;;;;;9.23;8.33;;;10.40;29.40;;;;;;10383447;28;20228;-72
2024/03/08 20:40:41;;;;;;;9.33;8.47;;;10.30;29.30;;;;;;10386004;28;20353;-72
2024/03/08 20:45:46;;;;;;;9.00;8.20;;;10.20;29.50;;;;;;10387843;28;20244;-72
2024/03/08 20:50:50;;;;;;;11.13;10.03;;;10.10;29.50;;;;;;10382702;28;20225;-72
2024/03/08 20:55:55;;;;;;;10.70;9.70;;;10.10;29.60;;;;;;10384061;28;20226;-72
2024/03/08 21:00:59;;;;;;;11.40;10.30;;;10.00;29.70;;;;;;10384442;28;20233;-72
2024/03/08 21:06:02;;;;;;;11.10;8.80;;;10.00;29.80;;;;;;10378573;28;20226;-71
2024/03/08 21:11:08;;;;;;;10.53;9.40;;;10.00;29.90;;;;;;10377861;28;20268;-72
2024/03/08 21:16:12;;;;;;;10.17;8.57;;;10.00;29.80;;;;;;10381735;28;20273;-72
2024/03/08 21:21:15;;;;;;;10.57;8.33;;;9.90;30.50;;;;;;10382544;28;20309;-72
2024/03/08 21:26:20;;;;;;;10.43;9.43;;;9.90;30.70;;;;;;10380552;28;20740;-72
2024/03/08 21:31:25;;;;;;;11.37;9.57;;;9.80;30.70;;;;;;10378134;28;20236;-72
2024/03/08 21:36:29;;;;;;;11.03;9.47;;;9.70;30.70;;;;;;10382422;28;20222;-72
2024/03/08 21:41:34;;;;;;;11.20;9.70;;;9.60;30.90;;;;;;10386871;28;20738;-72
2024/03/08 21:46:38;;;;;;;9.47;8.47;;;9.60;31.00;;;;;;10381522;28;20234;-72
2024/03/08 21:51:46;;;;;;;10.33;9.10;;;9.60;31.00;;;;;;10383291;28;20232;-72
2024/03/08 21:56:50;;;;;;;10.33;9.33;;;9.50;30.90;;;;;;10384542;28;20733;-72
2024/03/08 22:01:54;;;;;;;8.37;7.57;;;9.50;30.90;;;;;;10382219;28;20223;-72
2024/03/08 22:06:58;;;;;;;9.30;8.30;;;9.50;30.80;;;;;;10345504;28;1214523;-72
2024/03/08 22:12:03;;;;;;;8.87;7.97;;;9.40;30.60;;;;;;10385189;28;20687;-71
2024/03/08 22:17:07;;;;;;;8.57;7.77;;;9.40;31.40;;;;;;10384565;28;20241;-72
2024/03/08 22:22:11;;;;;;;8.77;7.87;;;9.30;30.80;;;;;;10385280;28;20229;-72
2024/03/08 22:27:16;;;;;;;8.13;7.33;;;9.20;30.80;;;;;;10382814;28;20230;-72
2024/03/08 22:32:19;;;;;;;8.83;8.03;;;9.10;30.90;;;;;;10380369;28;20230;-72
2024/03/08 22:37:24;;;;;;;8.80;7.90;;;9.10;31.00;;;;;;10382991;28;20229;-72
2024/03/08 22:42:29;;;;;;;8.17;7.37;;;9.00;30.90;;;;;;10384247;28;20231;-72
2024/03/08 22:47:33;;;;;;;8.17;7.37;;;9.00;30.90;;;;;;10380697;28;20230;-72
2024/03/08 22:52:37;;;;;;;8.73;7.27;;;8.90;30.90;;;;;;10386267;28;20832;-72
2024/03/08 22:57:43;;;;;;;8.70;7.83;;;8.90;31.00;;;;;;10385356;28;20245;-72
2024/03/08 23:02:47;;;;;;;8.37;7.43;;;8.80;31.10;;;;;;10378754;28;20738;-72
2024/03/08 23:07:51;;;;;;;7.80;6.90;;;8.80;31.10;;;;;;10379130;28;20226;-72
2024/03/08 23:12:57;;;;;;;8.33;7.53;;;8.80;31.20;;;;;;10382562;28;20704;-72
2024/03/08 23:18:01;;;;;;;8.10;7.30;;;8.70;31.20;;;;;;10382391;28;20317;-72
2024/03/08 23:23:05;;;;;;;8.67;7.37;;;8.70;31.20;;;;;;10380029;28;20304;-72
2024/03/08 23:28:11;;;;;;;9.23;7.60;;;8.60;31.10;;;;;;10382813;28;20344;-72
2024/03/08 23:33:18;;;;;;;8.27;7.33;;;8.60;31.40;;;;;;10382048;28;20230;-72
2024/03/08 23:38:21;;;;;;;8.30;7.40;;;8.60;31.30;;;;;;10378002;28;20427;-72
2024/03/08 23:43:26;;;;;;;7.47;6.77;;;8.50;31.30;;;;;;10379849;28;20248;-72
2024/03/08 23:48:30;;;;;;;7.00;6.30;;;8.50;31.30;;;;;;10379553;28;20639;-72
2024/03/08 23:53:33;;;;;;;7.10;6.40;;;8.50;31.30;;;;;;10378760;28;20320;-71
2024/03/08 23:58:37;;;;;;;7.83;7.03;;;8.40;31.20;;;;;;10378178;28;20238;-71
